Ana Sayfa
METAR-TAF:

METAR-TAF

Havaalanları :

Yeni Delhi, Hindistan

Enlem: 28-34N, Boylam: 077-07E, yükseklik: 220 m

Güncel hava durumu gözlemi

Rapor saat 16:00 UTC de 40 dakika önce yapıldı.
Rüzgar kuzey/kuzeybatıdan 6 kt
Sıcaklık 37°C
Nem 13%
Basınç 1005 hPa
Görüş mesafesi: 3000 m
Toz Pusu

METAR: VIDP 211600Z 34006KT 3000 HZ NSC 37/04 Q1005 NOSIG

Saat: 22:10 (16:40 UTC)

Tahmin

Rapor saat 14:00 UTC de 2 saat ve 40 dakika önce yapıldı.
Ayın 21'si saat 15 UTC'den ayın 21'si saat 24 UTC'ye kadar geçerli Tahmin
Rüzgar kuzey/kuzeybatıdan 6 kt
Görüş mesafesi: 3000 m
Toz Pusu

TAF: VIDP 211400Z 2115/2124 34006KT 3000 HZ NSC

4.000'den fazla havaalanı için hava durumu gözlemleri ve tahminleri (METAR ve TAF raporları).

Kullanılabilir istasyonlar harita üzerinde sarı ve kırmızı noktalarla gösterilir.

İstasyonun adını görmek için fareyi noktanın üzerinde gezdirin.

Sonrasında hava gözlem ve tahminlerini görmek için tıklayın.

Haritayı değiştirmek için: yaklaştırmak için siyah artı işaretli yeşil düğmeye ve uzaklaştırmak için de eksi işaretli düğmeye hızla tıklayın; bitişik haritalar için yeşil okları kullanın.


METAR-TAF: